sensor_id;sensor_type;location;lat;lon;timestamp;P1;durP1;ratioP1;P2;durP2;ratioP2
5499;SDS011;2772;42.700;23.304;2022-09-02T00:01:17;23.20;;;17.20;;
5499;SDS011;2772;42.700;23.304;2022-09-02T00:03:46;20.90;;;16.83;;
5499;SDS011;2772;42.700;23.304;2022-09-02T00:06:14;24.57;;;17.27;;
5499;SDS011;2772;42.700;23.304;2022-09-02T00:08:41;27.07;;;18.10;;
5499;SDS011;2772;42.700;23.304;2022-09-02T00:11:12;27.57;;;18.03;;
5499;SDS011;2772;42.700;23.304;2022-09-02T00:13:42;23.43;;;17.30;;
5499;SDS011;2772;42.700;23.304;2022-09-02T00:16:11;21.30;;;16.73;;
5499;SDS011;2772;42.700;23.304;2022-09-02T00:18:39;24.60;;;17.90;;
5499;SDS011;2772;42.700;23.304;2022-09-02T00:21:07;24.07;;;18.50;;
5499;SDS011;2772;42.700;23.304;2022-09-02T00:23:37;20.80;;;17.70;;
5499;SDS011;2772;42.700;23.304;2022-09-02T00:26:05;23.20;;;18.27;;
5499;SDS011;2772;42.700;23.304;2022-09-02T00:28:32;28.03;;;19.40;;
5499;SDS011;2772;42.700;23.304;2022-09-02T00:30:59;28.50;;;18.20;;
5499;SDS011;2772;42.700;23.304;2022-09-02T00:33:28;24.00;;;17.60;;
5499;SDS011;2772;42.700;23.304;2022-09-02T00:35:57;20.97;;;17.47;;
5499;SDS011;2772;42.700;23.304;2022-09-02T00:38:24;30.03;;;17.50;;
5499;SDS011;2772;42.700;23.304;2022-09-02T00:40:51;32.13;;;17.60;;
5499;SDS011;2772;42.700;23.304;2022-09-02T00:43:22;20.17;;;17.00;;
5499;SDS011;2772;42.700;23.304;2022-09-02T00:45:51;25.03;;;16.60;;
5499;SDS011;2772;42.700;23.304;2022-09-02T00:48:19;26.47;;;17.70;;
5499;SDS011;2772;42.700;23.304;2022-09-02T00:50:47;22.60;;;17.27;;
5499;SDS011;2772;42.700;23.304;2022-09-02T00:53:15;21.97;;;18.30;;
5499;SDS011;2772;42.700;23.304;2022-09-02T00:55:43;21.23;;;17.30;;
5499;SDS011;2772;42.700;23.304;2022-09-02T00:58:16;24.37;;;17.90;;
5499;SDS011;2772;42.700;23.304;2022-09-02T01:00:47;20.90;;;16.70;;
5499;SDS011;2772;42.700;23.304;2022-09-02T01:03:18;25.33;;;18.00;;
5499;SDS011;2772;42.700;23.304;2022-09-02T01:05:49;22.30;;;18.27;;
5499;SDS011;2772;42.700;23.304;2022-09-02T01:08:18;27.00;;;18.30;;
5499;SDS011;2772;42.700;23.304;2022-09-02T01:10:49;32.27;;;18.57;;
5499;SDS011;2772;42.700;23.304;2022-09-02T01:13:20;19.23;;;17.13;;
5499;SDS011;2772;42.700;23.304;2022-09-02T01:15:51;22.13;;;17.17;;
5499;SDS011;2772;42.700;23.304;2022-09-02T01:18:21;23.67;;;15.73;;
5499;SDS011;2772;42.700;23.304;2022-09-02T01:20:51;20.17;;;14.10;;
5499;SDS011;2772;42.700;23.304;2022-09-02T01:23:20;19.37;;;14.30;;
5499;SDS011;2772;42.700;23.304;2022-09-02T01:25:47;14.77;;;12.33;;
5499;SDS011;2772;42.700;23.304;2022-09-02T01:28:16;13.93;;;12.53;;
5499;SDS011;2772;42.700;23.304;2022-09-02T01:30:45;15.87;;;12.90;;
5499;SDS011;2772;42.700;23.304;2022-09-02T01:33:15;14.00;;;12.60;;
5499;SDS011;2772;42.700;23.304;2022-09-02T01:35:43;19.10;;;14.00;;
5499;SDS011;2772;42.700;23.304;2022-09-02T01:38:10;20.63;;;14.70;;
5499;SDS011;2772;42.700;23.304;2022-09-02T01:40:39;14.67;;;13.13;;
5499;SDS011;2772;42.700;23.304;2022-09-02T01:43:08;16.90;;;14.17;;
5499;SDS011;2772;42.700;23.304;2022-09-02T01:45:36;19.70;;;12.30;;
5499;SDS011;2772;42.700;23.304;2022-09-02T01:48:05;14.10;;;11.40;;
5499;SDS011;2772;42.700;23.304;2022-09-02T01:50:34;13.60;;;11.07;;
5499;SDS011;2772;42.700;23.304;2022-09-02T01:53:02;11.17;;;10.00;;
5499;SDS011;2772;42.700;23.304;2022-09-02T01:55:29;12.53;;;7.90;;
5499;SDS011;2772;42.700;23.304;2022-09-02T01:57:58;8.60;;;7.80;;
5499;SDS011;2772;42.700;23.304;2022-09-02T02:00:26;8.10;;;7.30;;
5499;SDS011;2772;42.700;23.304;2022-09-02T02:02:53;8.20;;;7.40;;
5499;SDS011;2772;42.700;23.304;2022-09-02T02:05:20;8.40;;;7.60;;
5499;SDS011;2772;42.700;23.304;2022-09-02T02:07:47;8.40;;;7.40;;
5499;SDS011;2772;42.700;23.304;2022-09-02T02:10:16;7.73;;;7.10;;
5499;SDS011;2772;42.700;23.304;2022-09-02T02:12:44;10.73;;;6.90;;
5499;SDS011;2772;42.700;23.304;2022-09-02T02:15:14;6.97;;;6.03;;
5499;SDS011;2772;42.700;23.304;2022-09-02T02:17:42;9.37;;;7.43;;
5499;SDS011;2772;42.700;23.304;2022-09-02T02:20:09;6.07;;;5.57;;
5499;SDS011;2772;42.700;23.304;2022-09-02T02:22:39;6.90;;;6.30;;
5499;SDS011;2772;42.700;23.304;2022-09-02T02:25:07;7.40;;;6.80;;
5499;SDS011;2772;42.700;23.304;2022-09-02T02:27:35;7.23;;;6.63;;
5499;SDS011;2772;42.700;23.304;2022-09-02T02:30:02;7.93;;;7.23;;
5499;SDS011;2772;42.700;23.304;2022-09-02T02:32:32;8.43;;;7.63;;
5499;SDS011;2772;42.700;23.304;2022-09-02T02:35:00;10.33;;;8.83;;
5499;SDS011;2772;42.700;23.304;2022-09-02T02:37:27;10.30;;;8.20;;
5499;SDS011;2772;42.700;23.304;2022-09-02T02:39:54;7.80;;;6.40;;
5499;SDS011;2772;42.700;23.304;2022-09-02T02:42:21;8.27;;;7.27;;
5499;SDS011;2772;42.700;23.304;2022-09-02T02:44:48;7.10;;;6.40;;
5499;SDS011;2772;42.700;23.304;2022-09-02T02:47:15;9.77;;;7.20;;
5499;SDS011;2772;42.700;23.304;2022-09-02T02:49:44;8.70;;;7.90;;
5499;SDS011;2772;42.700;23.304;2022-09-02T02:52:11;9.37;;;7.70;;
5499;SDS011;2772;42.700;23.304;2022-09-02T02:54:38;8.70;;;7.77;;
5499;SDS011;2772;42.700;23.304;2022-09-02T02:57:07;12.77;;;8.80;;
5499;SDS011;2772;42.700;23.304;2022-09-02T02:59:34;9.67;;;8.77;;
5499;SDS011;2772;42.700;23.304;2022-09-02T03:02:02;9.83;;;8.27;;
5499;SDS011;2772;42.700;23.304;2022-09-02T03:04:30;10.47;;;8.93;;
5499;SDS011;2772;42.700;23.304;2022-09-02T03:06:58;10.77;;;9.37;;
5499;SDS011;2772;42.700;23.304;2022-09-02T03:09:25;13.60;;;9.70;;
5499;SDS011;2772;42.700;23.304;2022-09-02T03:11:52;11.50;;;9.30;;
5499;SDS011;2772;42.700;23.304;2022-09-02T03:14:19;11.90;;;9.10;;
5499;SDS011;2772;42.700;23.304;2022-09-02T03:16:45;10.67;;;9.57;;
5499;SDS011;2772;42.700;23.304;2022-09-02T03:19:12;11.17;;;10.00;;
5499;SDS011;2772;42.700;23.304;2022-09-02T03:21:39;15.60;;;9.73;;
5499;SDS011;2772;42.700;23.304;2022-09-02T03:24:08;12.03;;;10.20;;
5499;SDS011;2772;42.700;23.304;2022-09-02T03:26:37;10.93;;;9.73;;
5499;SDS011;2772;42.700;23.304;2022-09-02T03:29:08;12.70;;;10.40;;
5499;SDS011;2772;42.700;23.304;2022-09-02T03:31:35;12.20;;;10.30;;
5499;SDS011;2772;42.700;23.304;2022-09-02T03:34:02;13.13;;;10.40;;
5499;SDS011;2772;42.700;23.304;2022-09-02T03:36:30;11.70;;;10.50;;
5499;SDS011;2772;42.700;23.304;2022-09-02T03:39:00;11.70;;;10.50;;
5499;SDS011;2772;42.700;23.304;2022-09-02T03:41:30;11.60;;;10.40;;
5499;SDS011;2772;42.700;23.304;2022-09-02T03:43:57;12.97;;;10.60;;
5499;SDS011;2772;42.700;23.304;2022-09-02T03:46:24;12.33;;;10.50;;
5499;SDS011;2772;42.700;23.304;2022-09-02T03:48:50;13.03;;;11.50;;
5499;SDS011;2772;42.700;23.304;2022-09-02T03:51:17;12.57;;;11.03;;
5499;SDS011;2772;42.700;23.304;2022-09-02T03:53:45;13.70;;;11.47;;
5499;SDS011;2772;42.700;23.304;2022-09-02T03:56:13;16.70;;;11.50;;
5499;SDS011;2772;42.700;23.304;2022-09-02T03:58:42;12.97;;;11.33;;
5499;SDS011;2772;42.700;23.304;2022-09-02T04:01:12;13.17;;;10.97;;
5499;SDS011;2772;42.700;23.304;2022-09-02T04:03:39;12.20;;;10.90;;
5499;SDS011;2772;42.700;23.304;2022-09-02T04:06:07;13.67;;;11.97;;
5499;SDS011;2772;42.700;23.304;2022-09-02T04:08:36;14.17;;;11.63;;
5499;SDS011;2772;42.700;23.304;2022-09-02T04:11:04;14.97;;;12.37;;
5499;SDS011;2772;42.700;23.304;2022-09-02T04:13:32;15.47;;;11.30;;
5499;SDS011;2772;42.700;23.304;2022-09-02T04:16:05;12.50;;;11.30;;
5499;SDS011;2772;42.700;23.304;2022-09-02T04:18:33;13.80;;;11.93;;
5499;SDS011;2772;42.700;23.304;2022-09-02T04:21:00;21.47;;;12.83;;
5499;SDS011;2772;42.700;23.304;2022-09-02T04:23:27;13.57;;;12.03;;
5499;SDS011;2772;42.700;23.304;2022-09-02T04:25:54;16.80;;;12.03;;
5499;SDS011;2772;42.700;23.304;2022-09-02T04:28:21;13.77;;;12.30;;
5499;SDS011;2772;42.700;23.304;2022-09-02T04:30:49;16.70;;;12.37;;
5499;SDS011;2772;42.700;23.304;2022-09-02T04:33:18;13.50;;;11.50;;
5499;SDS011;2772;42.700;23.304;2022-09-02T04:35:45;16.37;;;12.67;;
5499;SDS011;2772;42.700;23.304;2022-09-02T04:38:13;19.83;;;12.10;;
5499;SDS011;2772;42.700;23.304;2022-09-02T04:40:42;16.90;;;12.63;;
5499;SDS011;2772;42.700;23.304;2022-09-02T04:43:11;16.47;;;12.27;;
5499;SDS011;2772;42.700;23.304;2022-09-02T04:45:39;15.17;;;12.50;;
5499;SDS011;2772;42.700;23.304;2022-09-02T04:48:07;21.60;;;13.17;;
5499;SDS011;2772;42.700;23.304;2022-09-02T04:50:36;21.53;;;13.47;;
5499;SDS011;2772;42.700;23.304;2022-09-02T04:53:04;15.57;;;12.83;;
5499;SDS011;2772;42.700;23.304;2022-09-02T04:55:32;21.40;;;13.10;;
5499;SDS011;2772;42.700;23.304;2022-09-02T04:57:59;27.10;;;12.83;;
5499;SDS011;2772;42.700;23.304;2022-09-02T05:00:26;19.67;;;13.87;;
5499;SDS011;2772;42.700;23.304;2022-09-02T05:02:53;15.60;;;11.90;;
5499;SDS011;2772;42.700;23.304;2022-09-02T05:05:20;19.17;;;12.50;;
5499;SDS011;2772;42.700;23.304;2022-09-02T05:07:48;19.13;;;12.93;;
5499;SDS011;2772;42.700;23.304;2022-09-02T05:10:15;19.70;;;13.20;;
5499;SDS011;2772;42.700;23.304;2022-09-02T05:12:42;18.17;;;12.63;;
5499;SDS011;2772;42.700;23.304;2022-09-02T05:15:09;15.67;;;13.00;;
5499;SDS011;2772;42.700;23.304;2022-09-02T05:17:36;18.27;;;12.13;;
5499;SDS011;2772;42.700;23.304;2022-09-02T05:20:04;26.10;;;14.93;;
5499;SDS011;2772;42.700;23.304;2022-09-02T05:22:32;16.57;;;12.73;;
5499;SDS011;2772;42.700;23.304;2022-09-02T05:25:01;15.53;;;12.70;;
5499;SDS011;2772;42.700;23.304;2022-09-02T05:27:28;19.97;;;13.03;;
5499;SDS011;2772;42.700;23.304;2022-09-02T05:29:57;25.63;;;14.27;;
5499;SDS011;2772;42.700;23.304;2022-09-02T05:32:24;19.00;;;14.17;;
5499;SDS011;2772;42.700;23.304;2022-09-02T05:34:51;25.33;;;14.43;;
5499;SDS011;2772;42.700;23.304;2022-09-02T05:37:18;17.47;;;13.80;;
5499;SDS011;2772;42.700;23.304;2022-09-02T05:39:45;25.87;;;14.37;;
5499;SDS011;2772;42.700;23.304;2022-09-02T05:42:17;16.67;;;13.77;;
5499;SDS011;2772;42.700;23.304;2022-09-02T05:44:45;23.03;;;15.77;;
5499;SDS011;2772;42.700;23.304;2022-09-02T05:47:12;18.87;;;14.67;;
5499;SDS011;2772;42.700;23.304;2022-09-02T05:49:39;21.10;;;13.73;;
5499;SDS011;2772;42.700;23.304;2022-09-02T05:52:06;20.90;;;13.80;;
5499;SDS011;2772;42.700;23.304;2022-09-02T05:54:35;17.97;;;14.60;;
5499;SDS011;2772;42.700;23.304;2022-09-02T05:57:04;31.57;;;13.97;;
5499;SDS011;2772;42.700;23.304;2022-09-02T05:59:34;18.57;;;14.23;;
5499;SDS011;2772;42.700;23.304;2022-09-02T06:02:03;20.60;;;14.70;;
5499;SDS011;2772;42.700;23.304;2022-09-02T06:04:30;23.17;;;15.10;;
5499;SDS011;2772;42.700;23.304;2022-09-02T06:06:57;16.13;;;13.40;;
5499;SDS011;2772;42.700;23.304;2022-09-02T06:09:24;25.73;;;14.03;;
5499;SDS011;2772;42.700;23.304;2022-09-02T06:11:51;18.40;;;14.00;;
5499;SDS011;2772;42.700;23.304;2022-09-02T06:14:19;29.67;;;15.07;;
5499;SDS011;2772;42.700;23.304;2022-09-02T06:16:50;16.70;;;13.60;;
5499;SDS011;2772;42.700;23.304;2022-09-02T06:19:19;22.63;;;14.77;;
5499;SDS011;2772;42.700;23.304;2022-09-02T06:21:46;21.30;;;13.17;;
5499;SDS011;2772;42.700;23.304;2022-09-02T06:24:13;23.27;;;14.07;;
5499;SDS011;2772;42.700;23.304;2022-09-02T06:26:40;20.53;;;14.83;;
5499;SDS011;2772;42.700;23.304;2022-09-02T06:29:08;20.23;;;14.93;;
5499;SDS011;2772;42.700;23.304;2022-09-02T06:31:35;15.83;;;13.43;;
5499;SDS011;2772;42.700;23.304;2022-09-02T06:34:04;20.20;;;13.93;;
5499;SDS011;2772;42.700;23.304;2022-09-02T06:36:31;27.23;;;15.00;;
5499;SDS011;2772;42.700;23.304;2022-09-02T06:38:58;24.63;;;14.80;;
5499;SDS011;2772;42.700;23.304;2022-09-02T06:41:27;19.43;;;14.80;;
5499;SDS011;2772;42.700;23.304;2022-09-02T06:43:55;22.10;;;14.50;;
5499;SDS011;2772;42.700;23.304;2022-09-02T06:46:24;22.80;;;13.27;;
5499;SDS011;2772;42.700;23.304;2022-09-02T06:48:52;18.33;;;14.00;;
5499;SDS011;2772;42.700;23.304;2022-09-02T06:51:21;20.10;;;14.00;;
5499;SDS011;2772;42.700;23.304;2022-09-02T06:53:50;16.60;;;14.33;;
5499;SDS011;2772;42.700;23.304;2022-09-02T06:56:17;19.83;;;13.73;;
5499;SDS011;2772;42.700;23.304;2022-09-02T06:58:44;21.57;;;12.50;;
5499;SDS011;2772;42.700;23.304;2022-09-02T07:01:16;17.43;;;13.87;;
5499;SDS011;2772;42.700;23.304;2022-09-02T07:03:43;18.60;;;12.90;;
5499;SDS011;2772;42.700;23.304;2022-09-02T07:06:29;15.20;;;12.50;;
5499;SDS011;2772;42.700;23.304;2022-09-02T07:09:01;49.60;;;20.40;;
5499;SDS011;2772;42.700;23.304;2022-09-02T07:11:29;33.23;;;17.40;;
5499;SDS011;2772;42.700;23.304;2022-09-02T07:13:56;19.60;;;13.80;;
5499;SDS011;2772;42.700;23.304;2022-09-02T07:16:25;22.63;;;12.20;;
5499;SDS011;2772;42.700;23.304;2022-09-02T07:18:52;27.20;;;15.50;;
5499;SDS011;2772;42.700;23.304;2022-09-02T07:21:19;22.40;;;13.80;;
5499;SDS011;2772;42.700;23.304;2022-09-02T07:23:48;22.77;;;15.10;;
5499;SDS011;2772;42.700;23.304;2022-09-02T07:26:15;22.70;;;14.10;;
5499;SDS011;2772;42.700;23.304;2022-09-02T07:28:43;19.13;;;14.07;;
5499;SDS011;2772;42.700;23.304;2022-09-02T07:31:13;25.77;;;14.77;;
5499;SDS011;2772;42.700;23.304;2022-09-02T07:33:41;17.37;;;14.17;;
5499;SDS011;2772;42.700;23.304;2022-09-02T07:36:09;18.97;;;13.87;;
5499;SDS011;2772;42.700;23.304;2022-09-02T07:38:38;16.07;;;13.30;;
5499;SDS011;2772;42.700;23.304;2022-09-02T07:41:08;16.37;;;14.43;;
5499;SDS011;2772;42.700;23.304;2022-09-02T07:43:37;22.80;;;15.10;;
5499;SDS011;2772;42.700;23.304;2022-09-02T07:46:05;17.80;;;13.93;;
5499;SDS011;2772;42.700;23.304;2022-09-02T07:48:34;17.97;;;12.83;;
5499;SDS011;2772;42.700;23.304;2022-09-02T07:51:01;15.73;;;14.03;;
5499;SDS011;2772;42.700;23.304;2022-09-02T07:53:29;13.53;;;11.63;;
5499;SDS011;2772;42.700;23.304;2022-09-02T07:55:57;21.60;;;11.20;;
5499;SDS011;2772;42.700;23.304;2022-09-02T07:58:26;13.70;;;10.73;;
5499;SDS011;2772;42.700;23.304;2022-09-02T08:00:54;13.87;;;11.10;;
5499;SDS011;2772;42.700;23.304;2022-09-02T08:03:22;13.40;;;10.73;;
5499;SDS011;2772;42.700;23.304;2022-09-02T08:05:50;14.70;;;11.17;;
5499;SDS011;2772;42.700;23.304;2022-09-02T08:08:18;15.43;;;10.53;;
5499;SDS011;2772;42.700;23.304;2022-09-02T08:10:46;13.07;;;11.13;;
5499;SDS011;2772;42.700;23.304;2022-09-02T08:13:13;16.20;;;12.10;;
5499;SDS011;2772;42.700;23.304;2022-09-02T08:15:43;12.87;;;11.30;;
5499;SDS011;2772;42.700;23.304;2022-09-02T08:18:10;12.13;;;10.37;;
5499;SDS011;2772;42.700;23.304;2022-09-02T08:20:37;15.50;;;11.50;;
5499;SDS011;2772;42.700;23.304;2022-09-02T08:23:05;15.60;;;10.30;;
5499;SDS011;2772;42.700;23.304;2022-09-02T08:25:32;23.97;;;13.50;;
5499;SDS011;2772;42.700;23.304;2022-09-02T08:27:59;17.53;;;11.33;;
5499;SDS011;2772;42.700;23.304;2022-09-02T08:30:26;12.57;;;11.23;;
5499;SDS011;2772;42.700;23.304;2022-09-02T08:32:54;11.77;;;10.57;;
5499;SDS011;2772;42.700;23.304;2022-09-02T08:35:21;15.73;;;10.93;;
5499;SDS011;2772;42.700;23.304;2022-09-02T08:37:48;15.10;;;11.20;;
5499;SDS011;2772;42.700;23.304;2022-09-02T08:40:16;14.57;;;11.50;;
5499;SDS011;2772;42.700;23.304;2022-09-02T08:42:46;11.90;;;9.40;;
5499;SDS011;2772;42.700;23.304;2022-09-02T08:45:17;20.53;;;10.03;;
5499;SDS011;2772;42.700;23.304;2022-09-02T08:47:50;14.03;;;9.37;;
5499;SDS011;2772;42.700;23.304;2022-09-02T08:50:24;21.77;;;16.17;;
5499;SDS011;2772;42.700;23.304;2022-09-02T08:52:54;10.37;;;8.63;;
5499;SDS011;2772;42.700;23.304;2022-09-02T08:55:27;42.23;;;28.53;;
5499;SDS011;2772;42.700;23.304;2022-09-02T08:58:00;10.57;;;9.43;;
5499;SDS011;2772;42.700;23.304;2022-09-02T09:00:28;15.83;;;10.97;;
5499;SDS011;2772;42.700;23.304;2022-09-02T09:03:03;12.83;;;10.23;;
5499;SDS011;2772;42.700;23.304;2022-09-02T09:05:41;19.33;;;10.57;;
5499;SDS011;2772;42.700;23.304;2022-09-02T09:08:18;13.23;;;11.00;;
5499;SDS011;2772;42.700;23.304;2022-09-02T09:10:55;13.40;;;12.00;;
5499;SDS011;2772;42.700;23.304;2022-09-02T09:13:34;19.40;;;12.10;;
5499;SDS011;2772;42.700;23.304;2022-09-02T09:16:19;18.40;;;12.77;;
5499;SDS011;2772;42.700;23.304;2022-09-02T09:18:56;16.90;;;12.40;;
5499;SDS011;2772;42.700;23.304;2022-09-02T09:21:29;15.90;;;11.37;;
5499;SDS011;2772;42.700;23.304;2022-09-02T09:23:57;15.20;;;11.80;;
5499;SDS011;2772;42.700;23.304;2022-09-02T09:26:28;18.17;;;11.17;;
5499;SDS011;2772;42.700;23.304;2022-09-02T09:29:01;17.23;;;12.13;;
5499;SDS011;2772;42.700;23.304;2022-09-02T09:31:29;13.80;;;10.57;;
5499;SDS011;2772;42.700;23.304;2022-09-02T09:34:01;12.50;;;10.40;;
5499;SDS011;2772;42.700;23.304;2022-09-02T09:36:43;13.93;;;11.10;;
5499;SDS011;2772;42.700;23.304;2022-09-02T09:39:16;12.37;;;11.17;;
5499;SDS011;2772;42.700;23.304;2022-09-02T09:41:50;13.57;;;11.40;;
5499;SDS011;2772;42.700;23.304;2022-09-02T09:47:05;19.50;;;13.30;;
5499;SDS011;2772;42.700;23.304;2022-09-02T09:49:35;15.70;;;11.00;;
5499;SDS011;2772;42.700;23.304;2022-09-02T09:52:04;16.43;;;12.10;;
5499;SDS011;2772;42.700;23.304;2022-09-02T09:54:31;13.70;;;12.30;;
5499;SDS011;2772;42.700;23.304;2022-09-02T09:57:11;22.77;;;13.60;;
5499;SDS011;2772;42.700;23.304;2022-09-02T09:59:42;23.67;;;13.27;;
5499;SDS011;2772;42.700;23.304;2022-09-02T10:02:20;24.00;;;13.80;;
5499;SDS011;2772;42.700;23.304;2022-09-02T10:04:52;21.23;;;13.73;;
5499;SDS011;2772;42.700;23.304;2022-09-02T10:07:36;19.30;;;13.93;;
5499;SDS011;2772;42.700;23.304;2022-09-02T10:10:11;17.73;;;14.00;;
5499;SDS011;2772;42.700;23.304;2022-09-02T10:12:42;14.27;;;12.87;;
5499;SDS011;2772;42.700;23.304;2022-09-02T10:15:10;19.23;;;13.77;;
5499;SDS011;2772;42.700;23.304;2022-09-02T10:17:39;21.33;;;12.60;;
5499;SDS011;2772;42.700;23.304;2022-09-02T10:20:16;13.40;;;11.90;;
5499;SDS011;2772;42.700;23.304;2022-09-02T10:25:46;17.50;;;12.83;;
5499;SDS011;2772;42.700;23.304;2022-09-02T10:28:27;16.07;;;12.10;;
5499;SDS011;2772;42.700;23.304;2022-09-02T10:31:08;21.13;;;12.97;;
5499;SDS011;2772;42.700;23.304;2022-09-02T10:33:43;16.23;;;12.03;;
5499;SDS011;2772;42.700;23.304;2022-09-02T10:36:23;14.90;;;12.03;;
5499;SDS011;2772;42.700;23.304;2022-09-02T10:39:02;14.50;;;12.17;;
5499;SDS011;2772;42.700;23.304;2022-09-02T10:41:39;19.10;;;11.60;;
5499;SDS011;2772;42.700;23.304;2022-09-02T10:44:19;18.40;;;12.40;;
5499;SDS011;2772;42.700;23.304;2022-09-02T10:46:53;16.83;;;12.03;;
5499;SDS011;2772;42.700;23.304;2022-09-02T10:49:29;12.90;;;11.27;;
5499;SDS011;2772;42.700;23.304;2022-09-02T10:52:11;13.93;;;11.77;;
5499;SDS011;2772;42.700;23.304;2022-09-02T10:54:49;17.63;;;13.60;;
5499;SDS011;2772;42.700;23.304;2022-09-02T10:57:25;15.40;;;13.83;;
5499;SDS011;2772;42.700;23.304;2022-09-02T10:59:56;13.63;;;12.20;;
5499;SDS011;2772;42.700;23.304;2022-09-02T11:02:30;17.97;;;13.00;;
5499;SDS011;2772;42.700;23.304;2022-09-02T11:05:04;15.67;;;13.13;;
5499;SDS011;2772;42.700;23.304;2022-09-02T11:07:40;12.73;;;11.50;;
5499;SDS011;2772;42.700;23.304;2022-09-02T11:10:14;13.87;;;12.47;;
5499;SDS011;2772;42.700;23.304;2022-09-02T11:12:46;13.33;;;11.50;;
5499;SDS011;2772;42.700;23.304;2022-09-02T11:15:18;14.40;;;12.13;;
5499;SDS011;2772;42.700;23.304;2022-09-02T11:17:50;17.10;;;13.23;;
5499;SDS011;2772;42.700;23.304;2022-09-02T11:20:27;14.43;;;12.83;;
5499;SDS011;2772;42.700;23.304;2022-09-02T11:23:02;15.87;;;13.10;;
5499;SDS011;2772;42.700;23.304;2022-09-02T11:25:38;17.53;;;13.53;;
5499;SDS011;2772;42.700;23.304;2022-09-02T11:28:14;15.50;;;13.30;;
5499;SDS011;2772;42.700;23.304;2022-09-02T11:30:52;16.67;;;13.90;;
5499;SDS011;2772;42.700;23.304;2022-09-02T11:33:27;17.83;;;13.50;;
5499;SDS011;2772;42.700;23.304;2022-09-02T11:35:59;13.10;;;11.80;;
5499;SDS011;2772;42.700;23.304;2022-09-02T11:38:32;15.93;;;12.50;;
5499;SDS011;2772;42.700;23.304;2022-09-02T11:41:06;15.37;;;13.30;;
5499;SDS011;2772;42.700;23.304;2022-09-02T11:44:10;17.13;;;14.90;;
5499;SDS011;2772;42.700;23.304;2022-09-02T11:46:55;14.07;;;12.67;;
5499;SDS011;2772;42.700;23.304;2022-09-02T11:49:45;15.87;;;13.00;;
5499;SDS011;2772;42.700;23.304;2022-09-02T11:52:30;16.67;;;13.27;;
5499;SDS011;2772;42.700;23.304;2022-09-02T11:55:14;15.33;;;12.70;;
5499;SDS011;2772;42.700;23.304;2022-09-02T11:57:50;15.97;;;13.00;;
5499;SDS011;2772;42.700;23.304;2022-09-02T12:00:25;13.93;;;12.60;;
5499;SDS011;2772;42.700;23.304;2022-09-02T12:02:58;17.90;;;13.50;;
5499;SDS011;2772;42.700;23.304;2022-09-02T12:11:34;17.73;;;13.73;;
5499;SDS011;2772;42.700;23.304;2022-09-02T12:14:06;20.63;;;14.50;;
5499;SDS011;2772;42.700;23.304;2022-09-02T12:16:40;22.10;;;14.43;;
5499;SDS011;2772;42.700;23.304;2022-09-02T12:19:27;19.63;;;14.87;;
5499;SDS011;2772;42.700;23.304;2022-09-02T12:22:25;15.87;;;14.13;;
5499;SDS011;2772;42.700;23.304;2022-09-02T12:24:57;20.03;;;14.33;;
5499;SDS011;2772;42.700;23.304;2022-09-02T12:27:27;17.50;;;14.30;;
5499;SDS011;2772;42.700;23.304;2022-09-02T12:29:58;18.63;;;14.33;;
5499;SDS011;2772;42.700;23.304;2022-09-02T12:35:30;18.70;;;15.73;;
5499;SDS011;2772;42.700;23.304;2022-09-02T12:38:21;20.30;;;15.30;;
5499;SDS011;2772;42.700;23.304;2022-09-02T12:41:10;17.20;;;14.70;;
5499;SDS011;2772;42.700;23.304;2022-09-02T12:43:56;18.07;;;15.63;;
5499;SDS011;2772;42.700;23.304;2022-09-02T12:46:43;18.83;;;16.00;;
5499;SDS011;2772;42.700;23.304;2022-09-02T12:49:21;23.60;;;18.57;;
5499;SDS011;2772;42.700;23.304;2022-09-02T12:52:03;20.50;;;17.90;;
5499;SDS011;2772;42.700;23.304;2022-09-02T12:54:35;26.80;;;18.50;;
5499;SDS011;2772;42.700;23.304;2022-09-02T12:57:08;20.57;;;17.73;;
5499;SDS011;2772;42.700;23.304;2022-09-02T12:59:38;25.53;;;16.90;;
5499;SDS011;2772;42.700;23.304;2022-09-02T13:02:12;17.80;;;16.00;;
5499;SDS011;2772;42.700;23.304;2022-09-02T13:04:45;25.97;;;17.00;;
5499;SDS011;2772;42.700;23.304;2022-09-02T13:07:33;23.40;;;18.37;;
5499;SDS011;2772;42.700;23.304;2022-09-02T13:13:47;19.80;;;16.70;;
5499;SDS011;2772;42.700;23.304;2022-09-02T13:16:35;20.67;;;15.87;;
5499;SDS011;2772;42.700;23.304;2022-09-02T13:19:15;20.90;;;16.17;;
5499;SDS011;2772;42.700;23.304;2022-09-02T13:22:17;16.87;;;15.03;;
5499;SDS011;2772;42.700;23.304;2022-09-02T13:25:23;20.20;;;15.80;;
5499;SDS011;2772;42.700;23.304;2022-09-02T13:31:25;19.95;;;17.90;;
5499;SDS011;2772;42.700;23.304;2022-09-02T13:33:57;22.77;;;18.37;;
5499;SDS011;2772;42.700;23.304;2022-09-02T13:36:27;19.37;;;17.10;;
5499;SDS011;2772;42.700;23.304;2022-09-02T13:38:55;19.87;;;16.97;;
5499;SDS011;2772;42.700;23.304;2022-09-02T13:41:29;22.57;;;17.60;;
5499;SDS011;2772;42.700;23.304;2022-09-02T13:44:06;23.33;;;19.70;;
5499;SDS011;2772;42.700;23.304;2022-09-02T13:46:41;28.20;;;19.50;;
5499;SDS011;2772;42.700;23.304;2022-09-02T13:49:17;30.33;;;22.10;;
5499;SDS011;2772;42.700;23.304;2022-09-02T13:51:46;35.40;;;23.43;;
5499;SDS011;2772;42.700;23.304;2022-09-02T13:54:19;30.57;;;21.43;;
5499;SDS011;2772;42.700;23.304;2022-09-02T13:56:51;34.90;;;25.47;;
5499;SDS011;2772;42.700;23.304;2022-09-02T13:59:29;40.90;;;27.43;;
5499;SDS011;2772;42.700;23.304;2022-09-02T14:01:58;30.77;;;23.20;;
5499;SDS011;2772;42.700;23.304;2022-09-02T14:04:26;32.73;;;24.30;;
5499;SDS011;2772;42.700;23.304;2022-09-02T14:06:53;34.30;;;25.27;;
5499;SDS011;2772;42.700;23.304;2022-09-02T14:09:21;35.53;;;24.70;;
5499;SDS011;2772;42.700;23.304;2022-09-02T14:11:51;31.87;;;24.70;;
5499;SDS011;2772;42.700;23.304;2022-09-02T14:14:20;32.63;;;24.80;;
5499;SDS011;2772;42.700;23.304;2022-09-02T14:16:48;47.97;;;26.87;;
5499;SDS011;2772;42.700;23.304;2022-09-02T14:19:22;36.03;;;25.27;;
5499;SDS011;2772;42.700;23.304;2022-09-02T14:21:52;44.77;;;26.80;;
5499;SDS011;2772;42.700;23.304;2022-09-02T14:24:22;38.90;;;26.30;;
5499;SDS011;2772;42.700;23.304;2022-09-02T14:26:50;52.50;;;27.33;;
5499;SDS011;2772;42.700;23.304;2022-09-02T14:29:20;42.83;;;27.87;;
5499;SDS011;2772;42.700;23.304;2022-09-02T14:32:01;44.37;;;29.70;;
5499;SDS011;2772;42.700;23.304;2022-09-02T14:34:35;49.80;;;31.53;;
5499;SDS011;2772;42.700;23.304;2022-09-02T14:37:19;40.97;;;29.07;;
5499;SDS011;2772;42.700;23.304;2022-09-02T14:40:04;43.67;;;26.77;;
5499;SDS011;2772;42.700;23.304;2022-09-02T14:42:41;40.43;;;26.60;;
5499;SDS011;2772;42.700;23.304;2022-09-02T14:45:12;42.80;;;26.67;;
5499;SDS011;2772;42.700;23.304;2022-09-02T14:47:49;28.03;;;19.70;;
5499;SDS011;2772;42.700;23.304;2022-09-02T14:50:17;24.13;;;18.23;;
5499;SDS011;2772;42.700;23.304;2022-09-02T14:52:49;19.10;;;15.90;;
5499;SDS011;2772;42.700;23.304;2022-09-02T14:58:09;16.10;;;13.13;;
5499;SDS011;2772;42.700;23.304;2022-09-02T15:00:36;16.97;;;13.47;;
5499;SDS011;2772;42.700;23.304;2022-09-02T15:03:03;23.60;;;17.70;;
5499;SDS011;2772;42.700;23.304;2022-09-02T15:05:31;14.17;;;12.67;;
5499;SDS011;2772;42.700;23.304;2022-09-02T15:07:59;19.97;;;14.50;;
5499;SDS011;2772;42.700;23.304;2022-09-02T15:10:26;22.90;;;15.87;;
5499;SDS011;2772;42.700;23.304;2022-09-02T15:12:53;19.43;;;15.63;;
5499;SDS011;2772;42.700;23.304;2022-09-02T15:15:22;22.23;;;17.00;;
5499;SDS011;2772;42.700;23.304;2022-09-02T15:17:51;18.50;;;14.20;;
5499;SDS011;2772;42.700;23.304;2022-09-02T15:20:18;19.67;;;13.87;;
5499;SDS011;2772;42.700;23.304;2022-09-02T15:22:46;18.50;;;14.73;;